Terminal Aerodrome Forecast
Issued by NWS Billings, MT

Home | Current Version | Previous Version | Text Only | Print | Product List | Glossary On
Versions: 1 2 3 4 5 6 7 8 9 10 11 12 13 14 15 16 17 18 19 20 21 22 23 24 25 26 27 28 29 30 31 32 33
000
FTUS45 KBYZ 231124
TAFBIL
TAF
KBIL 231124Z 2312/2412 VRB05KT P6SM BKN025 BKN120
     FM231500 04010KT P6SM SCT050 BKN120
     FM231800 04011KT P6SM VCSH BKN030 OVC070
     FM240000 01006KT P6SM OVC050=

USA.gov is the U.S. government's official web portal to all federal, state and local government web resources and services.